sensor_id;sensor_type;location;lat;lon;timestamp;P1;durP1;ratioP1;P2;durP2;ratioP2
39104;SDS011;46464;51.154;13.812;2023-09-19T00:00:35;3.83;;;1.90;;
39104;SDS011;46464;51.154;13.812;2023-09-19T00:03:02;3.40;;;2.22;;
39104;SDS011;46464;51.154;13.812;2023-09-19T00:05:30;3.20;;;1.90;;
39104;SDS011;46464;51.154;13.812;2023-09-19T00:08:01;3.03;;;1.70;;
39104;SDS011;46464;51.154;13.812;2023-09-19T00:10:32;7.78;;;1.83;;
39104;SDS011;46464;51.154;13.812;2023-09-19T00:13:04;5.88;;;2.28;;
39104;SDS011;46464;51.154;13.812;2023-09-19T00:15:41;5.95;;;2.42;;
39104;SDS011;46464;51.154;13.812;2023-09-19T00:18:15;9.30;;;2.33;;
39104;SDS011;46464;51.154;13.812;2023-09-19T00:20:44;3.90;;;1.92;;
39104;SDS011;46464;51.154;13.812;2023-09-19T00:23:15;4.40;;;2.22;;
39104;SDS011;46464;51.154;13.812;2023-09-19T00:25:42;4.55;;;2.38;;
39104;SDS011;46464;51.154;13.812;2023-09-19T00:28:09;9.13;;;2.50;;
39104;SDS011;46464;51.154;13.812;2023-09-19T00:30:36;4.32;;;2.30;;
39104;SDS011;46464;51.154;13.812;2023-09-19T00:33:05;4.72;;;2.47;;
39104;SDS011;46464;51.154;13.812;2023-09-19T00:35:34;4.15;;;2.38;;
39104;SDS011;46464;51.154;13.812;2023-09-19T00:38:01;6.22;;;2.78;;
39104;SDS011;46464;51.154;13.812;2023-09-19T00:40:28;3.38;;;2.05;;
39104;SDS011;46464;51.154;13.812;2023-09-19T00:42:59;5.47;;;2.60;;
39104;SDS011;46464;51.154;13.812;2023-09-19T00:45:26;4.72;;;2.40;;
39104;SDS011;46464;51.154;13.812;2023-09-19T00:47:54;4.68;;;2.50;;
39104;SDS011;46464;51.154;13.812;2023-09-19T00:50:22;3.67;;;2.28;;
39104;SDS011;46464;51.154;13.812;2023-09-19T00:52:50;7.43;;;4.05;;
39104;SDS011;46464;51.154;13.812;2023-09-19T00:55:23;4.60;;;2.53;;
39104;SDS011;46464;51.154;13.812;2023-09-19T00:57:51;5.30;;;2.65;;
39104;SDS011;46464;51.154;13.812;2023-09-19T01:00:19;3.83;;;2.03;;
39104;SDS011;46464;51.154;13.812;2023-09-19T01:02:47;6.00;;;2.05;;
39104;SDS011;46464;51.154;13.812;2023-09-19T01:05:15;4.00;;;2.60;;
39104;SDS011;46464;51.154;13.812;2023-09-19T01:07:42;4.60;;;2.08;;
39104;SDS011;46464;51.154;13.812;2023-09-19T01:10:15;4.43;;;2.50;;
39104;SDS011;46464;51.154;13.812;2023-09-19T01:13:07;3.85;;;2.20;;
39104;SDS011;46464;51.154;13.812;2023-09-19T01:19:07;9.27;;;2.28;;
39104;SDS011;46464;51.154;13.812;2023-09-19T01:25:07;4.68;;;2.08;;
39104;SDS011;46464;51.154;13.812;2023-09-19T01:27:45;5.47;;;2.50;;
39104;SDS011;46464;51.154;13.812;2023-09-19T01:30:33;4.72;;;2.42;;
39104;SDS011;46464;51.154;13.812;2023-09-19T01:33:05;3.45;;;2.20;;
39104;SDS011;46464;51.154;13.812;2023-09-19T01:35:33;9.45;;;3.33;;
39104;SDS011;46464;51.154;13.812;2023-09-19T01:38:00;6.82;;;2.78;;
39104;SDS011;46464;51.154;13.812;2023-09-19T01:40:27;7.82;;;2.70;;
39104;SDS011;46464;51.154;13.812;2023-09-19T01:48:25;3.17;;;2.08;;
39104;SDS011;46464;51.154;13.812;2023-09-19T01:51:20;4.60;;;2.20;;
39104;SDS011;46464;51.154;13.812;2023-09-19T01:54:00;3.55;;;1.67;;
39104;SDS011;46464;51.154;13.812;2023-09-19T01:56:47;4.15;;;2.08;;
39104;SDS011;46464;51.154;13.812;2023-09-19T01:59:17;5.03;;;2.03;;
39104;SDS011;46464;51.154;13.812;2023-09-19T02:01:50;6.75;;;2.00;;
39104;SDS011;46464;51.154;13.812;2023-09-19T02:04:19;3.15;;;1.52;;
39104;SDS011;46464;51.154;13.812;2023-09-19T02:06:45;2.53;;;1.80;;
39104;SDS011;46464;51.154;13.812;2023-09-19T02:09:16;4.65;;;1.95;;
39104;SDS011;46464;51.154;13.812;2023-09-19T02:11:43;3.63;;;1.65;;
39104;SDS011;46464;51.154;13.812;2023-09-19T02:14:09;4.82;;;1.95;;
39104;SDS011;46464;51.154;13.812;2023-09-19T02:16:36;3.42;;;1.60;;
39104;SDS011;46464;51.154;13.812;2023-09-19T02:19:03;4.35;;;1.30;;
39104;SDS011;46464;51.154;13.812;2023-09-19T02:21:34;3.83;;;1.60;;
39104;SDS011;46464;51.154;13.812;2023-09-19T02:24:00;3.40;;;1.67;;
39104;SDS011;46464;51.154;13.812;2023-09-19T02:26:27;3.90;;;1.27;;
39104;SDS011;46464;51.154;13.812;2023-09-19T02:28:53;4.18;;;1.20;;
39104;SDS011;46464;51.154;13.812;2023-09-19T02:31:20;2.67;;;0.98;;
39104;SDS011;46464;51.154;13.812;2023-09-19T02:33:47;2.50;;;1.20;;
39104;SDS011;46464;51.154;13.812;2023-09-19T02:36:13;4.35;;;1.40;;
39104;SDS011;46464;51.154;13.812;2023-09-19T02:38:43;7.53;;;1.38;;
39104;SDS011;46464;51.154;13.812;2023-09-19T02:41:10;2.95;;;1.50;;
39104;SDS011;46464;51.154;13.812;2023-09-19T02:43:37;2.10;;;1.10;;
39104;SDS011;46464;51.154;13.812;2023-09-19T02:46:04;2.97;;;1.10;;
39104;SDS011;46464;51.154;13.812;2023-09-19T02:48:31;2.33;;;1.20;;
39104;SDS011;46464;51.154;13.812;2023-09-19T02:51:00;7.07;;;1.65;;
39104;SDS011;46464;51.154;13.812;2023-09-19T02:53:27;5.05;;;1.73;;
39104;SDS011;46464;51.154;13.812;2023-09-19T02:55:54;3.58;;;1.20;;
39104;SDS011;46464;51.154;13.812;2023-09-19T02:58:21;2.45;;;1.30;;
39104;SDS011;46464;51.154;13.812;2023-09-19T03:00:48;4.07;;;1.27;;
39104;SDS011;46464;51.154;13.812;2023-09-19T03:03:16;2.95;;;1.10;;
39104;SDS011;46464;51.154;13.812;2023-09-19T03:05:43;2.97;;;1.92;;
39104;SDS011;46464;51.154;13.812;2023-09-19T03:08:14;3.28;;;1.70;;
39104;SDS011;46464;51.154;13.812;2023-09-19T03:10:46;4.95;;;1.67;;
39104;SDS011;46464;51.154;13.812;2023-09-19T03:13:13;2.63;;;1.67;;
39104;SDS011;46464;51.154;13.812;2023-09-19T03:15:41;3.08;;;1.30;;
39104;SDS011;46464;51.154;13.812;2023-09-19T03:18:10;4.57;;;1.23;;
39104;SDS011;46464;51.154;13.812;2023-09-19T03:20:37;6.20;;;1.40;;
39104;SDS011;46464;51.154;13.812;2023-09-19T03:23:04;5.47;;;0.93;;
39104;SDS011;46464;51.154;13.812;2023-09-19T03:25:35;5.22;;;0.88;;
39104;SDS011;46464;51.154;13.812;2023-09-19T03:28:02;3.53;;;1.00;;
39104;SDS011;46464;51.154;13.812;2023-09-19T03:30:32;4.93;;;1.80;;
39104;SDS011;46464;51.154;13.812;2023-09-19T03:33:00;2.00;;;0.80;;
39104;SDS011;46464;51.154;13.812;2023-09-19T03:35:27;2.38;;;1.00;;
39104;SDS011;46464;51.154;13.812;2023-09-19T03:37:53;2.58;;;0.82;;
39104;SDS011;46464;51.154;13.812;2023-09-19T03:40:20;3.63;;;1.25;;
39104;SDS011;46464;51.154;13.812;2023-09-19T03:42:48;4.70;;;1.25;;
39104;SDS011;46464;51.154;13.812;2023-09-19T03:47:42;2.90;;;1.35;;
39104;SDS011;46464;51.154;13.812;2023-09-19T03:50:09;2.20;;;1.00;;
39104;SDS011;46464;51.154;13.812;2023-09-19T03:52:41;1.95;;;0.82;;
39104;SDS011;46464;51.154;13.812;2023-09-19T03:55:08;2.45;;;0.82;;
39104;SDS011;46464;51.154;13.812;2023-09-19T03:57:36;1.98;;;0.80;;
39104;SDS011;46464;51.154;13.812;2023-09-19T04:00:04;3.88;;;1.75;;
39104;SDS011;46464;51.154;13.812;2023-09-19T04:02:38;2.10;;;1.00;;
39104;SDS011;46464;51.154;13.812;2023-09-19T04:05:05;2.38;;;1.10;;
39104;SDS011;46464;51.154;13.812;2023-09-19T04:07:32;4.18;;;1.30;;
39104;SDS011;46464;51.154;13.812;2023-09-19T04:10:00;3.85;;;1.23;;
39104;SDS011;46464;51.154;13.812;2023-09-19T04:12:28;3.53;;;1.48;;
39104;SDS011;46464;51.154;13.812;2023-09-19T04:14:54;4.63;;;1.33;;
39104;SDS011;46464;51.154;13.812;2023-09-19T04:17:21;3.50;;;1.10;;
39104;SDS011;46464;51.154;13.812;2023-09-19T04:19:47;2.17;;;0.90;;
39104;SDS011;46464;51.154;13.812;2023-09-19T04:22:14;3.25;;;0.80;;
39104;SDS011;46464;51.154;13.812;2023-09-19T04:24:40;6.03;;;1.33;;
39104;SDS011;46464;51.154;13.812;2023-09-19T04:27:07;3.17;;;1.10;;
39104;SDS011;46464;51.154;13.812;2023-09-19T04:29:38;3.08;;;1.30;;
39104;SDS011;46464;51.154;13.812;2023-09-19T04:32:05;5.20;;;1.23;;
39104;SDS011;46464;51.154;13.812;2023-09-19T04:34:33;4.25;;;1.25;;
39104;SDS011;46464;51.154;13.812;2023-09-19T04:37:20;2.75;;;1.17;;
39104;SDS011;46464;51.154;13.812;2023-09-19T04:40:08;2.72;;;1.20;;
39104;SDS011;46464;51.154;13.812;2023-09-19T04:43:03;5.20;;;1.25;;
39104;SDS011;46464;51.154;13.812;2023-09-19T04:45:38;3.28;;;1.25;;
39104;SDS011;46464;51.154;13.812;2023-09-19T04:48:06;3.53;;;1.20;;
39104;SDS011;46464;51.154;13.812;2023-09-19T04:50:33;3.60;;;1.35;;
39104;SDS011;46464;51.154;13.812;2023-09-19T04:53:00;2.92;;;1.45;;
39104;SDS011;46464;51.154;13.812;2023-09-19T04:55:27;4.90;;;1.58;;
39104;SDS011;46464;51.154;13.812;2023-09-19T04:57:54;4.20;;;1.30;;
39104;SDS011;46464;51.154;13.812;2023-09-19T05:00:21;4.78;;;1.33;;
39104;SDS011;46464;51.154;13.812;2023-09-19T05:02:54;3.33;;;1.30;;
39104;SDS011;46464;51.154;13.812;2023-09-19T05:05:23;2.42;;;1.08;;
39104;SDS011;46464;51.154;13.812;2023-09-19T05:07:51;4.65;;;1.30;;
39104;SDS011;46464;51.154;13.812;2023-09-19T05:10:20;2.72;;;1.17;;
39104;SDS011;46464;51.154;13.812;2023-09-19T05:12:48;2.78;;;1.08;;
39104;SDS011;46464;51.154;13.812;2023-09-19T05:15:18;3.58;;;1.38;;
39104;SDS011;46464;51.154;13.812;2023-09-19T05:20:15;2.00;;;0.93;;
39104;SDS011;46464;51.154;13.812;2023-09-19T05:23:00;2.83;;;1.33;;
39104;SDS011;46464;51.154;13.812;2023-09-19T05:25:28;2.10;;;1.20;;
39104;SDS011;46464;51.154;13.812;2023-09-19T05:27:57;4.13;;;1.23;;
39104;SDS011;46464;51.154;13.812;2023-09-19T05:30:25;2.85;;;1.08;;
39104;SDS011;46464;51.154;13.812;2023-09-19T05:32:53;2.55;;;1.08;;
39104;SDS011;46464;51.154;13.812;2023-09-19T05:35:21;2.42;;;1.10;;
39104;SDS011;46464;51.154;13.812;2023-09-19T05:37:49;2.75;;;1.00;;
39104;SDS011;46464;51.154;13.812;2023-09-19T05:40:17;2.25;;;1.70;;
39104;SDS011;46464;51.154;13.812;2023-09-19T05:42:44;2.30;;;1.00;;
39104;SDS011;46464;51.154;13.812;2023-09-19T05:45:11;2.45;;;1.40;;
39104;SDS011;46464;51.154;13.812;2023-09-19T05:47:39;4.30;;;1.25;;
39104;SDS011;46464;51.154;13.812;2023-09-19T05:50:08;2.50;;;1.50;;
39104;SDS011;46464;51.154;13.812;2023-09-19T05:52:35;3.55;;;1.30;;
39104;SDS011;46464;51.154;13.812;2023-09-19T05:55:04;2.45;;;1.17;;
39104;SDS011;46464;51.154;13.812;2023-09-19T05:57:33;4.28;;;1.20;;
39104;SDS011;46464;51.154;13.812;2023-09-19T06:00:00;3.22;;;1.30;;
39104;SDS011;46464;51.154;13.812;2023-09-19T06:04:55;2.95;;;1.00;;
39104;SDS011;46464;51.154;13.812;2023-09-19T06:07:22;3.92;;;1.25;;
39104;SDS011;46464;51.154;13.812;2023-09-19T06:09:52;2.63;;;0.98;;
39104;SDS011;46464;51.154;13.812;2023-09-19T06:12:22;2.92;;;1.00;;
39104;SDS011;46464;51.154;13.812;2023-09-19T06:14:48;3.65;;;1.50;;
39104;SDS011;46464;51.154;13.812;2023-09-19T06:17:15;4.20;;;1.08;;
39104;SDS011;46464;51.154;13.812;2023-09-19T06:19:43;3.22;;;1.10;;
39104;SDS011;46464;51.154;13.812;2023-09-19T06:22:15;3.15;;;1.30;;
39104;SDS011;46464;51.154;13.812;2023-09-19T06:24:44;2.50;;;1.13;;
39104;SDS011;46464;51.154;13.812;2023-09-19T06:27:13;3.25;;;1.20;;
39104;SDS011;46464;51.154;13.812;2023-09-19T06:29:39;3.17;;;1.17;;
39104;SDS011;46464;51.154;13.812;2023-09-19T06:34:35;5.05;;;1.27;;
39104;SDS011;46464;51.154;13.812;2023-09-19T06:37:01;2.22;;;1.20;;
39104;SDS011;46464;51.154;13.812;2023-09-19T06:39:29;5.60;;;1.40;;
39104;SDS011;46464;51.154;13.812;2023-09-19T06:41:57;2.85;;;1.58;;
39104;SDS011;46464;51.154;13.812;2023-09-19T06:44:24;5.30;;;1.63;;
39104;SDS011;46464;51.154;13.812;2023-09-19T06:46:51;4.05;;;1.00;;
39104;SDS011;46464;51.154;13.812;2023-09-19T06:49:18;3.17;;;0.90;;
39104;SDS011;46464;51.154;13.812;2023-09-19T06:51:44;3.70;;;0.95;;
39104;SDS011;46464;51.154;13.812;2023-09-19T06:54:11;4.13;;;1.08;;
39104;SDS011;46464;51.154;13.812;2023-09-19T06:56:37;2.30;;;0.90;;
39104;SDS011;46464;51.154;13.812;2023-09-19T06:59:03;1.85;;;0.90;;
39104;SDS011;46464;51.154;13.812;2023-09-19T07:01:33;2.38;;;0.95;;
39104;SDS011;46464;51.154;13.812;2023-09-19T07:04:00;1.48;;;0.80;;
39104;SDS011;46464;51.154;13.812;2023-09-19T07:06:27;2.30;;;1.08;;
39104;SDS011;46464;51.154;13.812;2023-09-19T07:08:54;1.88;;;0.82;;
39104;SDS011;46464;51.154;13.812;2023-09-19T07:11:21;4.97;;;1.30;;
39104;SDS011;46464;51.154;13.812;2023-09-19T07:13:48;2.95;;;1.13;;
39104;SDS011;46464;51.154;13.812;2023-09-19T07:16:15;1.63;;;1.00;;
39104;SDS011;46464;51.154;13.812;2023-09-19T07:18:54;3.15;;;0.95;;
39104;SDS011;46464;51.154;13.812;2023-09-19T07:21:23;3.10;;;1.08;;
39104;SDS011;46464;51.154;13.812;2023-09-19T07:23:50;3.25;;;0.90;;
39104;SDS011;46464;51.154;13.812;2023-09-19T07:26:18;2.42;;;0.90;;
39104;SDS011;46464;51.154;13.812;2023-09-19T07:28:45;3.58;;;1.13;;
39104;SDS011;46464;51.154;13.812;2023-09-19T07:31:11;2.55;;;0.85;;
39104;SDS011;46464;51.154;13.812;2023-09-19T07:33:40;2.25;;;0.90;;
39104;SDS011;46464;51.154;13.812;2023-09-19T07:36:09;1.77;;;0.90;;
39104;SDS011;46464;51.154;13.812;2023-09-19T07:38:36;2.80;;;1.55;;
39104;SDS011;46464;51.154;13.812;2023-09-19T07:41:03;1.90;;;1.00;;
39104;SDS011;46464;51.154;13.812;2023-09-19T07:43:31;3.08;;;0.90;;
39104;SDS011;46464;51.154;13.812;2023-09-19T07:48:35;2.15;;;0.82;;
39104;SDS011;46464;51.154;13.812;2023-09-19T07:53:30;3.55;;;0.98;;
39104;SDS011;46464;51.154;13.812;2023-09-19T07:56:05;2.30;;;1.00;;
39104;SDS011;46464;51.154;13.812;2023-09-19T07:58:33;3.58;;;0.90;;
39104;SDS011;46464;51.154;13.812;2023-09-19T08:01:02;2.22;;;0.70;;
39104;SDS011;46464;51.154;13.812;2023-09-19T08:03:29;2.70;;;0.98;;
39104;SDS011;46464;51.154;13.812;2023-09-19T08:05:58;2.95;;;0.70;;
39104;SDS011;46464;51.154;13.812;2023-09-19T08:08:25;2.05;;;0.88;;
39104;SDS011;46464;51.154;13.812;2023-09-19T08:10:53;1.92;;;0.73;;
39104;SDS011;46464;51.154;13.812;2023-09-19T08:13:22;3.30;;;0.85;;
39104;SDS011;46464;51.154;13.812;2023-09-19T08:15:50;2.13;;;0.70;;
39104;SDS011;46464;51.154;13.812;2023-09-19T08:18:20;3.58;;;1.00;;
39104;SDS011;46464;51.154;13.812;2023-09-19T08:20:49;3.60;;;0.60;;
39104;SDS011;46464;51.154;13.812;2023-09-19T08:23:19;1.90;;;0.60;;
39104;SDS011;46464;51.154;13.812;2023-09-19T08:25:47;1.17;;;0.55;;
39104;SDS011;46464;51.154;13.812;2023-09-19T08:28:14;4.00;;;1.00;;
39104;SDS011;46464;51.154;13.812;2023-09-19T08:30:45;2.38;;;0.80;;
39104;SDS011;46464;51.154;13.812;2023-09-19T08:33:12;1.88;;;0.70;;
39104;SDS011;46464;51.154;13.812;2023-09-19T08:35:41;2.65;;;0.80;;
39104;SDS011;46464;51.154;13.812;2023-09-19T08:38:09;2.50;;;0.70;;
39104;SDS011;46464;51.154;13.812;2023-09-19T08:40:37;2.58;;;0.70;;
39104;SDS011;46464;51.154;13.812;2023-09-19T08:43:06;3.67;;;1.15;;
39104;SDS011;46464;51.154;13.812;2023-09-19T08:45:34;1.27;;;0.80;;
39104;SDS011;46464;51.154;13.812;2023-09-19T08:50:51;4.18;;;1.40;;
39104;SDS011;46464;51.154;13.812;2023-09-19T08:53:26;3.03;;;0.75;;
39104;SDS011;46464;51.154;13.812;2023-09-19T08:55:59;4.63;;;1.25;;
39104;SDS011;46464;51.154;13.812;2023-09-19T08:58:31;3.50;;;0.90;;
39104;SDS011;46464;51.154;13.812;2023-09-19T09:01:07;3.90;;;1.30;;
39104;SDS011;46464;51.154;13.812;2023-09-19T09:03:35;2.90;;;0.80;;
39104;SDS011;46464;51.154;13.812;2023-09-19T09:06:07;2.13;;;0.70;;
39104;SDS011;46464;51.154;13.812;2023-09-19T09:08:37;1.92;;;0.80;;
39104;SDS011;46464;51.154;13.812;2023-09-19T09:11:06;2.83;;;0.77;;
39104;SDS011;46464;51.154;13.812;2023-09-19T09:13:35;3.97;;;0.93;;
39104;SDS011;46464;51.154;13.812;2023-09-19T09:16:03;1.75;;;0.90;;
